Time;durP1;ratioP1;P1;durP2;ratioP2;P2;SDS_P1;SDS_P2;PMS_P1;PMS_P2;Temp;Humidity;BMP_temperature;BMP_pressure;BME280_temperature;BME280_humidity;BME280_pressure;Samples;Min_cycle;Max_cycle;Signal;HPM_P1;HPM_P2
2023/01/10 00:00:52;;;;;;;20.80;2.83;;;;;;;-143.29;100.00;62188.47;6104061;23;20351;-94
2023/01/10 00:03:18;;;;;;;29.45;4.15;;;;;;;-143.29;100.00;62188.47;6104269;23;20386;-94
2023/01/10 00:05:43;;;;;;;26.35;2.90;;;;;;;-143.29;100.00;62188.47;6104157;23;20011;-94
2023/01/10 00:08:14;;;;;;;21.58;2.97;;;;;;;-143.29;100.00;62188.47;6104665;23;20012;-94
2023/01/10 00:10:39;;;;;;;21.58;2.88;;;;;;;-143.29;100.00;62188.47;6104041;23;20015;-94
2023/01/10 00:13:23;;;;;;;12.95;2.30;;;;;;;-143.29;100.00;62188.47;6104215;23;20004;-95
2023/01/10 00:15:50;;;;;;;16.55;2.70;;;;;;;-143.29;100.00;62188.47;6103963;23;20015;-94
2023/01/10 00:18:16;;;;;;;24.10;3.72;;;;;;;-143.29;100.00;62188.47;6104258;23;20014;-94
2023/01/10 00:20:43;;;;;;;21.75;2.97;;;;;;;-143.29;100.00;62188.47;6104246;23;20086;-94
2023/01/10 00:23:09;;;;;;;23.75;2.88;;;;;;;-143.29;100.00;62188.47;6104462;23;20338;-93
2023/01/10 00:25:35;;;;;;;21.90;3.83;;;;;;;-143.29;100.00;62188.47;6104342;23;20387;-94
2023/01/10 00:28:09;;;;;;;24.20;5.57;;;;;;;-143.29;100.00;62188.47;6104328;23;20035;-94
2023/01/10 00:30:39;;;;;;;38.38;5.07;;;;;;;-143.29;100.00;62188.47;6104118;23;20012;-94
2023/01/10 00:33:06;;;;;;;39.17;5.18;;;;;;;-143.29;100.00;62188.47;6103719;23;20008;-94
2023/01/10 00:35:32;;;;;;;23.90;3.05;;;;;;;-143.29;100.00;62188.47;6103949;23;20020;-95
2023/01/10 00:38:01;;;;;;;36.35;5.47;;;;;;;-143.29;100.00;62188.47;6104130;23;20008;-95
2023/01/10 00:40:26;;;;;;;24.23;4.72;;;;;;;-143.29;100.00;62188.47;6103910;23;20039;-94
2023/01/10 00:45:35;;;;;;;28.45;3.40;;;;;;;-143.29;100.00;62188.47;6006061;23;20055;-95
2023/01/10 00:48:01;;;;;;;22.60;3.00;;;;;;;-143.29;100.00;62188.47;6103161;23;20020;-94
2023/01/10 00:50:27;;;;;;;25.85;3.00;;;;;;;-143.29;100.00;62188.47;6104302;23;20035;-95
2023/01/10 00:52:52;;;;;;;27.45;4.07;;;;;;;-143.29;100.00;62188.47;6104039;23;20502;-95
2023/01/10 00:55:17;;;;;;;24.52;3.00;;;;;;;-143.29;100.00;62188.47;6104060;23;20458;-95
2023/01/10 00:57:43;;;;;;;30.63;3.10;;;;;;;-143.29;100.00;62188.47;6103524;23;20108;-94
2023/01/10 01:00:10;;;;;;;22.67;3.10;;;;;;;-143.29;100.00;62188.47;6103566;23;20083;-94
2023/01/10 01:02:36;;;;;;;21.50;3.03;;;;;;;-143.29;100.00;62188.47;6103616;23;20012;-94
2023/01/10 01:05:03;;;;;;;22.60;3.05;;;;;;;-143.29;100.00;62188.47;6104214;23;20031;-93
2023/01/10 01:07:28;;;;;;;21.48;2.83;;;;;;;-143.29;100.00;62188.47;6104120;23;20008;-93
2023/01/10 01:12:38;;;;;;;27.25;4.78;;;;;;;-143.29;100.00;62188.47;6006190;23;20068;-94
2023/01/10 01:15:04;;;;;;;23.83;2.97;;;;;;;-143.29;100.00;62188.47;6103441;23;20007;-94
2023/01/10 01:17:30;;;;;;;19.95;2.90;;;;;;;-143.29;100.00;62188.47;6103664;23;20008;-95
2023/01/10 01:19:55;;;;;;;26.85;3.05;;;;;;;-143.29;100.00;62188.47;6103926;23;20031;-95
2023/01/10 01:22:21;;;;;;;23.08;5.63;;;;;;;-143.29;100.00;62188.47;6103846;23;20482;-94
2023/01/10 01:24:46;;;;;;;21.15;2.95;;;;;;;-143.29;100.00;62188.47;6104255;23;20331;-94
2023/01/10 01:27:12;;;;;;;25.00;3.22;;;;;;;-143.29;100.00;62188.47;6105755;23;20342;-92
2023/01/10 01:29:37;;;;;;;13.02;2.72;;;;;;;-143.29;100.00;62188.47;6106237;23;20427;-95
2023/01/10 01:32:03;;;;;;;13.07;2.30;;;;;;;-143.29;100.00;62188.47;6105543;23;20004;-94
2023/01/10 01:34:28;;;;;;;20.10;3.25;;;;;;;-143.29;100.00;62188.47;6105525;23;20011;-95
2023/01/10 01:36:55;;;;;;;19.95;3.30;;;;;;;-143.29;100.00;62188.47;6105516;23;20035;-93
2023/01/10 01:39:21;;;;;;;15.85;2.55;;;;;;;-143.29;100.00;62188.47;6105765;23;20035;-96
2023/01/10 01:41:56;;;;;;;21.98;3.28;;;;;;;-143.29;100.00;62188.47;6105384;23;20016;-95
2023/01/10 01:44:22;;;;;;;17.67;2.78;;;;;;;-143.29;100.00;62188.47;6105602;23;20019;-94
2023/01/10 01:46:59;;;;;;;28.17;4.18;;;;;;;-143.29;100.00;62188.47;6104979;23;20034;-94
2023/01/10 01:49:24;;;;;;;33.53;3.67;;;;;;;-143.29;100.00;62188.47;6105075;23;20501;-94
2023/01/10 01:52:03;;;;;;;18.52;2.72;;;;;;;-143.29;100.00;62188.47;6105475;23;20000;-94
2023/01/10 01:54:31;;;;;;;21.15;2.75;;;;;;;-143.29;100.00;62188.47;6105264;23;20012;-93
2023/01/10 01:57:04;;;;;;;23.65;2.92;;;;;;;-143.29;100.00;62188.47;6105168;23;20087;-94
2023/01/10 01:59:38;;;;;;;22.20;2.72;;;;;;;-143.29;100.00;62188.47;6105258;23;20147;-94
2023/01/10 02:02:17;;;;;;;21.23;2.97;;;;;;;-143.29;100.00;62188.47;6105361;23;20016;-94
2023/01/10 02:04:56;;;;;;;18.70;2.60;;;;;;;-143.29;100.00;62188.47;6104914;23;20014;-94
2023/01/10 02:07:25;;;;;;;26.92;3.28;;;;;;;-143.29;100.00;62188.47;6104767;23;20012;-94
2023/01/10 02:09:56;;;;;;;17.55;2.55;;;;;;;-143.29;100.00;62188.47;6105716;23;20031;-94
2023/01/10 02:12:23;;;;;;;24.50;2.97;;;;;;;-143.29;100.00;62188.47;6105620;23;20016;-94
2023/01/10 02:14:51;;;;;;;26.50;2.90;;;;;;;-143.29;100.00;62188.47;6105316;23;20000;-94
2023/01/10 02:17:16;;;;;;;21.75;3.30;;;;;;;-143.29;100.00;62188.47;6105220;23;20065;-94
2023/01/10 02:19:56;;;;;;;17.40;2.63;;;;;;;-143.29;100.00;62188.47;6105210;23;20095;-94
2023/01/10 02:22:32;;;;;;;15.35;2.10;;;;;;;-143.29;100.00;62188.47;6103746;23;20090;-93
2023/01/10 02:25:19;;;;;;;21.83;3.45;;;;;;;-143.29;100.00;62188.47;6104946;23;20019;-95
2023/01/10 02:28:19;;;;;;;22.27;4.35;;;;;;;-143.29;100.00;62188.47;6105544;23;20007;-95
2023/01/10 02:30:50;;;;;;;16.58;2.65;;;;;;;-143.29;100.00;62188.47;6007049;23;20004;-95
2023/01/10 02:33:48;;;;;;;20.25;3.42;;;;;;;-143.29;100.00;62188.47;6104944;23;20012;-95
2023/01/10 02:36:28;;;;;;;18.95;2.28;;;;;;;-143.29;100.00;62188.47;6105176;23;20008;-95
2023/01/10 02:39:01;;;;;;;20.98;2.95;;;;;;;-143.29;100.00;62188.47;6104522;23;20007;-95
2023/01/10 02:41:36;;;;;;;28.70;2.75;;;;;;;-143.29;100.00;62188.47;6104670;23;20016;-94
2023/01/10 02:44:15;;;;;;;30.80;4.90;;;;;;;-143.29;100.00;62188.47;6104881;23;20011;-94
2023/01/10 02:46:43;;;;;;;14.77;2.42;;;;;;;-143.29;100.00;62188.47;6105051;23;20014;-94
2023/01/10 02:49:09;;;;;;;27.98;3.28;;;;;;;-143.29;100.00;62188.47;6104981;23;20012;-94
2023/01/10 02:51:34;;;;;;;22.13;3.13;;;;;;;-143.29;100.00;62188.47;6104824;23;20010;-94
2023/01/10 02:54:11;;;;;;;20.52;2.92;;;;;;;-143.29;100.00;62188.47;6103845;23;20039;-94
2023/01/10 02:57:04;;;;;;;20.98;2.28;;;;;;;-143.29;100.00;62188.47;6103772;23;20019;-94
2023/01/10 02:59:49;;;;;;;31.67;4.10;;;;;;;-143.29;100.00;62188.47;6104446;23;20066;-93
2023/01/10 03:02:27;;;;;;;21.60;3.85;;;;;;;-143.29;100.00;62188.47;6104558;23;20018;-93
2023/01/10 03:05:09;;;;;;;19.33;2.50;;;;;;;-143.29;100.00;62188.47;6105040;23;20012;-93
2023/01/10 03:07:51;;;;;;;18.63;2.50;;;;;;;-143.29;100.00;62188.47;6105115;23;20018;-94
2023/01/10 03:10:30;;;;;;;19.17;3.28;;;;;;;-143.29;100.00;62188.47;6105340;23;20012;-94
2023/01/10 03:13:18;;;;;;;25.48;3.45;;;;;;;-143.29;100.00;62188.47;6104255;23;20015;-94
2023/01/10 03:15:46;;;;;;;32.63;3.17;;;;;;;-143.29;100.00;62188.47;6104259;23;20015;-94
2023/01/10 03:18:22;;;;;;;23.73;3.33;;;;;;;-143.29;100.00;62188.47;6104654;23;20012;-94
2023/01/10 03:20:52;;;;;;;25.02;2.90;;;;;;;-143.29;100.00;62188.47;6104449;23;20066;-94
2023/01/10 03:23:21;;;;;;;19.48;2.75;;;;;;;-143.29;100.00;62188.47;6105220;23;20012;-94
2023/01/10 03:25:48;;;;;;;17.67;2.97;;;;;;;-143.29;100.00;62188.47;6007065;23;20003;-94
2023/01/10 03:28:31;;;;;;;21.63;3.00;;;;;;;-143.29;100.00;62188.47;6104361;23;20011;-94
2023/01/10 03:31:21;;;;;;;22.63;2.80;;;;;;;-143.29;100.00;62188.47;6104336;23;20123;-94
2023/01/10 03:33:48;;;;;;;21.27;2.92;;;;;;;-143.29;100.00;62188.47;6092590;23;20014;-94
2023/01/10 03:36:30;;;;;;;33.97;2.75;;;;;;;-143.29;100.00;62188.47;6105001;23;20004;-94
2023/01/10 03:39:04;;;;;;;;;;;;;;;-143.29;100.00;62188.47;6104014;23;20090;-94
2023/01/10 03:41:44;;;;;;;26.48;3.42;;;;;;;-143.29;100.00;62188.47;6103990;23;19910;-94
2023/01/10 03:47:02;;;;;;;31.60;3.63;;;;;;;-143.29;100.00;62188.47;6005935;23;20074;-93
2023/01/10 03:49:30;;;;;;;22.15;3.47;;;;;;;-143.29;100.00;62188.47;6103872;23;20012;-94
2023/01/10 03:51:57;;;;;;;21.70;4.07;;;;;;;-143.29;100.00;62188.47;6104452;23;20019;-94
2023/01/10 03:54:23;;;;;;;24.30;2.88;;;;;;;-143.29;100.00;62188.47;6104638;23;20008;-94
2023/01/10 03:56:50;;;;;;;17.17;3.17;;;;;;;-143.29;100.00;62188.47;6104705;23;20015;-95
2023/01/10 03:59:19;;;;;;;25.60;3.15;;;;;;;-143.29;100.00;62188.47;6104624;23;20443;-94
2023/01/10 04:01:44;;;;;;;17.60;3.38;;;;;;;-143.29;100.00;62188.47;6104270;23;20064;-94
2023/01/10 04:04:10;;;;;;;31.40;5.50;;;;;;;-143.29;100.00;62188.47;6103997;23;20012;-95
2023/01/10 04:06:36;;;;;;;16.88;2.90;;;;;;;-143.29;100.00;62188.47;6104248;23;20031;-94
2023/01/10 04:09:02;;;;;;;18.48;2.58;;;;;;;-143.29;100.00;62188.47;6104420;23;20094;-94
2023/01/10 04:11:27;;;;;;;25.65;3.28;;;;;;;-143.29;100.00;62188.47;6104542;23;20019;-95
2023/01/10 04:13:53;;;;;;;24.65;4.60;;;;;;;-143.29;100.00;62188.47;6104759;23;20027;-94
2023/01/10 04:16:19;;;;;;;21.45;3.45;;;;;;;-143.29;100.00;62188.47;6104246;23;20034;-95
2023/01/10 04:18:44;;;;;;;26.83;3.20;;;;;;;-143.29;100.00;62188.47;6104059;23;20346;-95
2023/01/10 04:21:10;;;;;;;20.15;3.28;;;;;;;-143.29;100.00;62188.47;6103466;23;20074;-94
2023/01/10 04:23:35;;;;;;;23.50;3.03;;;;;;;-143.29;100.00;62188.47;6104619;23;20087;-95
2023/01/10 04:26:01;;;;;;;28.20;5.28;;;;;;;-143.29;100.00;62188.47;6104049;23;20015;-94
2023/01/10 04:28:27;;;;;;;31.40;5.70;;;;;;;-143.29;100.00;62188.47;6104496;23;20051;-94
2023/01/10 04:30:52;;;;;;;26.17;4.22;;;;;;;-143.29;100.00;62188.47;6104114;23;20016;-94
2023/01/10 04:33:18;;;;;;;28.52;3.38;;;;;;;-143.29;100.00;62188.47;6104584;23;20068;-94
2023/01/10 04:35:48;;;;;;;29.33;3.75;;;;;;;-143.29;100.00;62188.47;6103234;23;20043;-95
2023/01/10 04:38:14;;;;;;;21.83;3.15;;;;;;;-143.29;100.00;62188.47;6103943;23;20016;-94
2023/01/10 04:40:41;;;;;;;21.63;2.97;;;;;;;-143.29;100.00;62188.47;6104482;23;20012;-95
2023/01/10 04:43:07;;;;;;;30.52;3.88;;;;;;;-143.29;100.00;62188.47;6105939;23;20094;-96
2023/01/10 04:45:36;;;;;;;26.00;3.42;;;;;;;-143.29;100.00;62188.47;6107381;23;20008;-95
2023/01/10 06:08:43;;;;;;;27.95;3.33;;;;;;;-143.29;100.00;62188.47;5961327;24;20057;-96
2023/01/10 06:12:03;;;;;;;46.60;3.78;;;;;;;-143.29;100.00;62188.47;5961697;23;20011;-96
2023/01/10 06:14:44;;;;;;;22.00;3.28;;;;;;;-143.29;100.00;62188.47;6077920;23;20081;-96
2023/01/10 06:17:27;;;;;;;;;;;;;;;;;;;;;
2023/01/10 06:19:56;;;;;;;39.08;3.15;;;;;;;-143.29;100.00;62188.47;6100597;23;20517;-96
2023/01/10 06:22:25;;;;;;;34.40;6.00;;;;;;;-143.29;100.00;62188.47;6098759;23;20006;-96
2023/01/10 06:25:03;;;;;;;23.63;3.05;;;;;;;-143.29;100.00;62188.47;6099360;23;20013;-95
2023/01/10 06:27:39;;;;;;;32.22;5.90;;;;;;;-143.29;100.00;62188.47;6076135;23;20010;-96
2023/01/10 06:30:11;;;;;;;18.98;2.53;;;;;;;-143.29;100.00;62188.47;6101578;23;20013;-96
2023/01/10 06:32:39;;;;;;;;;;;;;;;-143.29;100.00;62188.47;6101030;23;20010;-96
2023/01/10 06:35:08;;;;;;;25.77;3.15;;;;;;;-143.29;100.00;62188.47;6099608;23;20253;-95
2023/01/10 06:37:34;;;;;;;20.75;2.53;;;;;;;-143.29;100.00;62188.47;6098808;23;20081;-96
2023/01/10 06:40:00;;;;;;;25.60;2.60;;;;;;;-143.29;100.00;62188.47;6097997;23;20311;-96
2023/01/10 06:42:28;;;;;;;22.63;5.10;;;;;;;-143.29;100.00;62188.47;6073587;23;20041;-96
2023/01/10 06:44:54;;;;;;;17.00;2.65;;;;;;;-143.29;100.00;62188.47;6098956;23;20002;-96
2023/01/10 06:47:19;;;;;;;29.20;2.78;;;;;;;-143.29;100.00;62188.47;6097696;23;20425;-96
2023/01/10 06:49:45;;;;;;;10.60;1.73;;;;;;;-143.29;100.00;62188.47;6074206;23;20105;-96
2023/01/10 06:52:11;;;;;;;13.93;2.05;;;;;;;-143.29;100.00;62188.47;6073585;23;20042;-96
2023/01/10 06:54:41;;;;;;;15.93;2.13;;;;;;;-143.29;100.00;62188.47;6100261;23;20429;-96
2023/01/10 06:57:07;;;;;;;12.02;1.60;;;;;;;-143.29;100.00;62188.47;6099732;23;20002;-96
2023/01/10 07:00:00;;;;;;;13.10;1.55;;;;;;;-143.29;100.00;62188.47;6081331;23;20017;-96
2023/01/10 07:02:30;;;;;;;10.18;1.67;;;;;;;-143.29;100.00;62188.47;6102992;23;20002;-96
2023/01/10 07:05:01;;;;;;;8.95;1.48;;;;;;;-143.29;100.00;62188.47;6104684;23;20011;-96
2023/01/10 07:07:27;;;;;;;8.38;1.50;;;;;;;-143.29;100.00;62188.47;6073785;23;20069;-96
2023/01/10 07:09:58;;;;;;;11.02;1.17;;;;;;;-143.29;100.00;62188.47;6106091;23;20002;-96
2023/01/10 07:12:53;;;;;;;5.43;0.73;;;;;;;-143.29;100.00;62188.47;6079520;23;20014;-96
2023/01/10 07:15:43;;;;;;;11.93;0.77;;;;;;;-143.29;100.00;62188.47;6076029;23;20042;-95
2023/01/10 07:18:24;;;;;;;;;;;;;;;;;;;;;
2023/01/10 07:21:18;;;;;;;7.15;0.95;;;;;;;-143.29;100.00;62188.47;6101214;23;20041;-95
2023/01/10 07:23:50;;;;;;;0.80;0.40;;;;;;;-143.29;100.00;62188.47;6084479;23;20006;-96
2023/01/10 07:29:09;;;;;;;3.75;0.35;;;;;;;-143.29;100.00;62188.47;6095539;23;20034;-96
2023/01/10 07:38:24;;;;;;;1.52;0.40;;;;;;;-143.29;100.00;62188.47;6070011;23;20112;-96
2023/01/10 07:40:50;;;;;;;3.72;0.50;;;;;;;-143.29;100.00;62188.47;6128380;23;20016;-96
2023/01/10 07:43:18;;;;;;;1.27;0.40;;;;;;;-143.29;100.00;62188.47;6104752;23;20017;-96
2023/01/10 09:03:48;;;;;;;0.43;0.30;;;;;;;-143.29;100.00;62188.47;5988629;24;20016;-96
2023/01/10 09:06:54;;;;;;;;;;;;;;;;;;;;;
2023/01/10 09:10:27;;;;;;;;;;;;;;;;;;;;;
2023/01/10 09:13:16;;;;;;;5.07;0.25;;;;;;;-143.29;100.00;62188.47;5963830;24;20173;-96
2023/01/10 09:15:44;;;;;;;5.28;0.65;;;;;;;-143.29;100.00;62188.47;6078351;23;20010;-96
2023/01/10 09:18:29;;;;;;;0.30;0.20;;;;;;;-143.29;100.00;62188.47;6098688;23;20006;-96
2023/01/10 09:21:26;;;;;;;0.20;0.10;;;;;;;-143.29;100.00;62188.47;6078502;23;20006;-96
2023/01/10 09:25:03;;;;;;;;;;;;;;;;;;;;;
2023/01/10 09:27:44;;;;;;;2.90;0.10;;;;;;;-143.29;100.00;62188.47;6092287;23;20011;-96
2023/01/10 09:56:51;;;;;;;5.60;1.50;;;;;;;-143.29;100.00;62188.47;5949872;24;20440;-96
2023/01/10 09:59:49;;;;;;;3.45;1.40;;;;;;;-143.29;100.00;62188.47;6045563;23;20433;-96
2023/01/10 10:02:41;;;;;;;4.15;2.03;;;;;;;-143.29;100.00;62188.47;6045827;23;20079;-96
2023/01/10 10:05:21;;;;;;;9.13;1.63;;;;;;;-143.29;100.00;62188.47;6016783;23;20012;-95
2023/01/10 10:08:25;;;;;;;7.75;2.45;;;;;;;-143.29;100.00;62188.47;6042728;23;20016;-96
2023/01/10 10:11:29;;;;;;;13.23;2.70;;;;;;;-143.29;100.00;62188.47;5920014;23;20020;-96
2023/01/10 10:14:15;;;;;;;10.02;2.35;;;;;;;-143.29;100.00;62188.47;6041217;23;20392;-96
2023/01/10 10:17:17;;;;;;;7.88;2.22;;;;;;;-143.29;100.00;62188.47;5919824;24;20041;-95
2023/01/10 10:23:46;;;;;;;14.15;2.25;;;;;;;-143.29;100.00;62188.47;5922351;24;20021;-96
2023/01/10 10:26:40;;;;;;;10.27;1.77;;;;;;;-143.29;100.00;62188.47;6000635;23;20017;-96
2023/01/10 10:29:17;;;;;;;12.27;2.03;;;;;;;-143.29;100.00;62188.47;6013441;23;20009;-96
2023/01/10 10:31:57;;;;;;;19.88;2.10;;;;;;;-143.29;100.00;62188.47;5925208;24;20005;-96
2023/01/10 10:34:39;;;;;;;9.82;2.60;;;;;;;-143.29;100.00;62188.47;6041539;23;20447;-96
2023/01/10 10:40:56;;;;;;;10.38;1.85;;;;;;;-143.29;100.00;62188.47;5962040;23;20013;-96
2023/01/10 10:43:50;;;;;;;14.77;1.95;;;;;;;-143.29;100.00;62188.47;6020255;23;20480;-96
2023/01/10 10:46:22;;;;;;;18.52;2.05;;;;;;;-143.29;100.00;62188.47;6021433;23;20367;-96
2023/01/10 10:49:18;;;;;;;20.83;1.98;;;;;;;-143.29;100.00;62188.47;6020302;23;20013;-96
2023/01/10 10:52:04;;;;;;;13.65;1.90;;;;;;;-143.29;100.00;62188.47;6021037;23;20013;-96
2023/01/10 10:54:43;;;;;;;13.50;2.05;;;;;;;-143.29;100.00;62188.47;5928078;24;20005;-96
2023/01/10 10:57:11;;;;;;;9.23;2.05;;;;;;;-143.29;100.00;62188.47;6041956;23;20017;-96
2023/01/10 10:59:37;;;;;;;14.75;2.13;;;;;;;-143.29;100.00;62188.47;6018080;23;20013;-95
2023/01/10 11:02:10;;;;;;;14.73;2.25;;;;;;;-143.29;100.00;62188.47;6042504;23;20016;-96
2023/01/10 11:04:36;;;;;;;15.43;1.75;;;;;;;-143.29;100.00;62188.47;6018456;23;20017;-95
2023/01/10 11:07:02;;;;;;;20.20;3.58;;;;;;;-143.29;100.00;62188.47;6017795;23;20439;-95
2023/01/10 11:11:59;;;;;;;;;;;;;;;-143.29;100.00;62188.47;5923903;24;20037;-95
2023/01/10 11:14:48;;;;;;;14.48;2.42;;;;;;;-143.29;100.00;62188.47;6017756;23;19919;-96
2023/01/10 11:17:26;;;;;;;12.57;2.53;;;;;;;-143.29;100.00;62188.47;6017473;23;20009;-95
2023/01/10 11:20:04;;;;;;;18.98;2.60;;;;;;;-143.29;100.00;62188.47;6017326;23;20017;-95
2023/01/10 11:22:43;;;;;;;19.42;2.47;;;;;;;-143.29;100.00;62188.47;6019346;23;20005;-95
2023/01/10 11:29:08;;;;;;;23.67;3.00;;;;;;;-143.29;100.00;62188.47;5999040;23;20026;-96
2023/01/10 11:31:35;;;;;;;15.73;2.45;;;;;;;-143.29;100.00;62188.47;6104436;23;20214;-95
2023/01/10 11:34:06;;;;;;;17.90;2.42;;;;;;;-143.29;100.00;62188.47;6104007;23;20008;-96
2023/01/10 11:37:04;;;;;;;21.55;2.75;;;;;;;-143.29;100.00;62188.47;6100269;23;20268;-96
2023/01/10 11:39:31;;;;;;;16.58;3.13;;;;;;;-143.29;100.00;62188.47;6076039;23;20004;-95
2023/01/10 11:42:24;;;;;;;25.90;3.15;;;;;;;-143.29;100.00;62188.47;6075138;23;20016;-94
2023/01/10 11:44:50;;;;;;;20.83;3.33;;;;;;;-143.29;100.00;62188.47;6076226;23;20454;-95
2023/01/10 11:47:19;;;;;;;18.33;3.20;;;;;;;-143.29;100.00;62188.47;6075491;23;20012;-96
2023/01/10 11:49:47;;;;;;;27.20;3.95;;;;;;;-143.29;100.00;62188.47;6075261;23;20029;-94
2023/01/10 11:52:28;;;;;;;12.10;2.58;;;;;;;-143.29;100.00;62188.47;6076013;23;20065;-96
2023/01/10 11:54:59;;;;;;;17.98;2.38;;;;;;;-143.29;100.00;62188.47;6077780;23;20023;-96
2023/01/10 11:57:34;;;;;;;25.95;3.38;;;;;;;-143.29;100.00;62188.47;6075982;23;20018;-96
2023/01/10 12:00:26;;;;;;;19.20;2.85;;;;;;;-143.29;100.00;62188.47;6078428;23;20004;-96
2023/01/10 12:02:51;;;;;;;22.70;3.20;;;;;;;-143.29;100.00;62188.47;6071204;23;20584;-96
2023/01/10 12:05:36;;;;;;;21.35;2.83;;;;;;;-143.29;100.00;62188.47;6104269;23;20016;-96
2023/01/10 12:08:09;;;;;;;20.75;2.72;;;;;;;-143.29;100.00;62188.47;6080324;23;20013;-96
2023/01/10 12:10:39;;;;;;;22.48;2.92;;;;;;;-143.29;100.00;62188.47;6078677;23;20018;-96
2023/01/10 12:13:19;;;;;;;24.25;3.40;;;;;;;-143.29;100.00;62188.47;6077364;23;20008;-96
2023/01/10 12:15:56;;;;;;;19.83;3.40;;;;;;;-143.29;100.00;62188.47;6079127;23;20012;-96
2023/01/10 12:18:32;;;;;;;23.02;3.08;;;;;;;-143.29;100.00;62188.47;6080447;23;20004;-96
2023/01/10 12:21:06;;;;;;;23.55;2.78;;;;;;;-143.29;100.00;62188.47;6080693;23;20008;-96
2023/01/10 12:26:52;;;;;;;24.05;4.88;;;;;;;-143.29;100.00;62188.47;5983850;24;20091;-96
2023/01/10 12:29:46;;;;;;;24.48;3.33;;;;;;;-143.29;100.00;62188.47;6106360;23;20073;-96
2023/01/10 12:32:35;;;;;;;20.98;3.55;;;;;;;-143.29;100.00;62188.47;6079718;23;20075;-96
2023/01/10 12:35:09;;;;;;;28.85;3.28;;;;;;;-143.29;100.00;62188.47;6100905;23;20013;-96
2023/01/10 12:38:06;;;;;;;37.03;4.85;;;;;;;-143.29;100.00;62188.47;6077343;23;20012;-96
2023/01/10 12:40:54;;;;;;;29.08;3.78;;;;;;;-143.29;100.00;62188.47;6077690;23;20031;-96
2023/01/10 12:46:40;;;;;;;27.48;3.13;;;;;;;-143.29;100.00;62188.47;5985047;24;20018;-96
2023/01/10 12:50:02;;;;;;;21.52;3.70;;;;;;;-143.29;100.00;62188.47;6105413;23;20083;-96
2023/01/10 12:55:59;;;;;;;22.00;3.58;;;;;;;-143.29;100.00;62188.47;6011661;23;20023;-96
2023/01/10 12:59:18;;;;;;;31.80;4.38;;;;;;;-143.29;100.00;62188.47;6134121;23;20010;-96
2023/01/10 13:01:58;;;;;;;26.40;4.05;;;;;;;-143.29;100.00;62188.47;6042544;23;20029;-96
2023/01/10 13:04:27;;;;;;;32.28;5.55;;;;;;;-143.29;100.00;62188.47;6102406;23;20055;-96
2023/01/10 13:06:54;;;;;;;31.38;5.20;;;;;;;-143.29;100.00;62188.47;6100376;23;20026;-96
2023/01/10 13:09:23;;;;;;;26.85;4.72;;;;;;;-143.29;100.00;62188.47;6100818;23;20006;-96
2023/01/10 13:11:58;;;;;;;24.15;4.63;;;;;;;-143.29;100.00;62188.47;6100292;23;20333;-96
2023/01/10 13:14:31;;;;;;;28.58;4.32;;;;;;;-143.29;100.00;62188.47;6100590;23;20033;-96
2023/01/10 13:17:09;;;;;;;27.73;4.95;;;;;;;-143.29;100.00;62188.47;6100280;23;20014;-96
2023/01/10 13:19:35;;;;;;;38.17;5.30;;;;;;;-143.29;100.00;62188.47;6100172;23;20337;-96
2023/01/10 13:22:21;;;;;;;37.53;5.35;;;;;;;-143.29;100.00;62188.47;6125994;23;20101;-96
2023/01/10 13:24:59;;;;;;;32.92;4.68;;;;;;;-143.29;100.00;62188.47;6126297;23;20002;-96
2023/01/10 13:27:30;;;;;;;31.52;4.22;;;;;;;-143.29;100.00;62188.47;6102808;23;20013;-96
2023/01/10 13:29:56;;;;;;;25.38;4.00;;;;;;;-143.29;100.00;62188.47;6102683;23;20002;-96
2023/01/10 13:32:29;;;;;;;19.25;3.60;;;;;;;-143.29;100.00;62188.47;6102296;23;20041;-96
2023/01/10 13:35:11;;;;;;;34.33;6.07;;;;;;;-143.29;100.00;62188.47;6102058;23;20009;-95
2023/01/10 13:37:39;;;;;;;29.55;4.15;;;;;;;-143.29;100.00;62188.47;6101065;23;20451;-96
2023/01/10 13:40:05;;;;;;;34.55;4.45;;;;;;;-143.29;100.00;62188.47;6101619;23;20013;-96
2023/01/10 13:45:22;;;;;;;23.23;3.28;;;;;;;-143.29;100.00;62188.47;6128296;23;20017;-96
2023/01/10 13:47:53;;;;;;;28.90;4.18;;;;;;;-143.29;100.00;62188.47;6101916;23;20006;-96
2023/01/10 13:50:22;;;;;;;28.30;3.78;;;;;;;-143.29;100.00;62188.47;6101971;23;20485;-96
2023/01/10 13:53:14;;;;;;;27.23;4.15;;;;;;;-143.29;100.00;62188.47;6101106;23;20009;-96
2023/01/10 13:55:44;;;;;;;31.15;4.15;;;;;;;-143.29;100.00;62188.47;6043226;23;20013;-95
2023/01/10 13:58:14;;;;;;;25.45;4.35;;;;;;;-143.29;100.00;62188.47;6101669;23;20429;-94
2023/01/10 14:03:51;;;;;;;24.45;6.05;;;;;;;-143.29;100.00;62188.47;6127755;23;20076;-95
2023/01/10 14:06:29;;;;;;;31.00;4.05;;;;;;;-143.29;100.00;62188.47;6101251;23;20006;-95
2023/01/10 14:09:00;;;;;;;26.63;3.63;;;;;;;-143.29;100.00;62188.47;6101471;23;20010;-95
2023/01/10 14:11:53;;;;;;;23.17;3.92;;;;;;;-143.29;100.00;62188.47;6101138;23;20014;-95
2023/01/10 14:14:25;;;;;;;25.35;3.55;;;;;;;-143.29;100.00;62188.47;6089886;23;20006;-95
2023/01/10 14:17:12;;;;;;;28.48;3.80;;;;;;;-143.29;100.00;62188.47;6101297;23;20299;-95
2023/01/10 14:19:38;;;;;;;26.92;3.95;;;;;;;-143.29;100.00;62188.47;6101493;23;20093;-96
2023/01/10 14:22:04;;;;;;;23.23;3.65;;;;;;;-143.29;100.00;62188.47;6100701;23;20460;-94
2023/01/10 14:24:51;;;;;;;27.52;4.43;;;;;;;-143.29;100.00;62188.47;6101018;23;20037;-95
2023/01/10 14:27:20;;;;;;;24.48;4.38;;;;;;;-143.29;100.00;62188.47;6101546;23;20053;-93
2023/01/10 14:29:53;;;;;;;22.23;3.55;;;;;;;-143.29;100.00;62188.47;6100879;23;20010;-94
2023/01/10 14:32:32;;;;;;;32.08;4.78;;;;;;;-143.29;100.00;62188.47;6100834;23;20025;-95
2023/01/10 14:35:02;;;;;;;29.27;4.85;;;;;;;-143.29;100.00;62188.47;6100659;23;20070;-94
2023/01/10 14:37:38;;;;;;;21.77;4.70;;;;;;;-143.29;100.00;62188.47;6101156;23;20009;-95
2023/01/10 14:40:11;;;;;;;20.15;3.53;;;;;;;-143.29;100.00;62188.47;6100848;23;20041;-94
2023/01/10 14:42:37;;;;;;;18.42;3.65;;;;;;;-143.29;100.00;62188.47;6101093;23;20002;-96
2023/01/10 14:45:43;;;;;;;23.42;3.83;;;;;;;-143.29;100.00;62188.47;6101078;23;20017;-95
2023/01/10 14:48:46;;;;;;;25.52;4.40;;;;;;;-143.29;100.00;62188.47;6085595;23;20034;-96
2023/01/10 14:51:11;;;;;;;;;;;;;;;-143.29;100.00;62188.47;6125185;23;20345;-95
2023/01/10 14:53:36;;;;;;;32.30;5.50;;;;;;;-143.29;100.00;62188.47;6126979;23;19909;-96
2023/01/10 14:56:02;;;;;;;42.50;5.47;;;;;;;-143.29;100.00;62188.47;6100820;23;20012;-96
2023/01/10 14:58:27;;;;;;;25.20;5.20;;;;;;;-143.29;100.00;62188.47;6100943;23;20395;-95
2023/01/10 15:00:55;;;;;;;31.98;4.28;;;;;;;-143.29;100.00;62188.47;6101533;23;20010;-95
2023/01/10 15:03:24;;;;;;;31.45;3.85;;;;;;;-143.29;100.00;62188.47;6101581;23;20020;-96
2023/01/10 15:05:53;;;;;;;40.08;6.28;;;;;;;-143.29;100.00;62188.47;6102542;23;20017;-95
2023/01/10 15:08:26;;;;;;;24.77;4.28;;;;;;;-143.29;100.00;62188.47;6101059;23;20017;-95
2023/01/10 15:10:55;;;;;;;33.10;4.47;;;;;;;-143.29;100.00;62188.47;6101533;23;20480;-95
2023/01/10 15:13:27;;;;;;;23.20;3.70;;;;;;;-143.29;100.00;62188.47;6100986;23;20006;-94
2023/01/10 15:15:53;;;;;;;18.25;3.20;;;;;;;-143.29;100.00;62188.47;6100688;23;20006;-95
2023/01/10 15:18:35;;;;;;;18.80;3.45;;;;;;;-143.29;100.00;62188.47;6100807;23;20307;-94
2023/01/10 15:21:01;;;;;;;24.52;3.63;;;;;;;-143.29;100.00;62188.47;6099395;23;20009;-96
2023/01/10 15:23:40;;;;;;;27.63;3.72;;;;;;;-143.29;100.00;62188.47;6100970;23;20006;-95
2023/01/10 15:26:24;;;;;;;21.25;3.83;;;;;;;-143.29;100.00;62188.47;6126215;23;20105;-95
2023/01/10 15:29:13;;;;;;;16.52;3.10;;;;;;;-143.29;100.00;62188.47;6100859;23;20018;-95
2023/01/10 15:31:40;;;;;;;20.77;3.08;;;;;;;-143.29;100.00;62188.47;6100819;23;20014;-95
2023/01/10 15:34:15;;;;;;;21.83;3.42;;;;;;;-143.29;100.00;62188.47;6100107;23;20388;-95
2023/01/10 15:36:49;;;;;;;28.42;4.90;;;;;;;-143.29;100.00;62188.47;6099200;23;20001;-95